sensor_id;sensor_type;location;lat;lon;timestamp;temperature;humidity
67752;DHT22;54551;51.068;5.826;2023-01-28T00:00:46;4.60;99.90
67752;DHT22;54551;51.068;5.826;2023-01-28T00:03:12;4.50;99.90
67752;DHT22;54551;51.068;5.826;2023-01-28T00:05:38;4.50;99.90
67752;DHT22;54551;51.068;5.826;2023-01-28T00:08:04;4.40;99.90
67752;DHT22;54551;51.068;5.826;2023-01-28T00:10:30;4.40;99.90
67752;DHT22;54551;51.068;5.826;2023-01-28T00:12:55;4.40;99.90
67752;DHT22;54551;51.068;5.826;2023-01-28T00:15:21;4.50;99.90
67752;DHT22;54551;51.068;5.826;2023-01-28T00:17:47;4.40;99.90
67752;DHT22;54551;51.068;5.826;2023-01-28T00:20:13;4.50;99.90
67752;DHT22;54551;51.068;5.826;2023-01-28T00:22:39;4.40;99.90
67752;DHT22;54551;51.068;5.826;2023-01-28T00:25:05;4.50;99.90
67752;DHT22;54551;51.068;5.826;2023-01-28T00:27:31;4.40;99.90
67752;DHT22;54551;51.068;5.826;2023-01-28T00:29:57;4.50;99.90
67752;DHT22;54551;51.068;5.826;2023-01-28T00:32:23;4.40;99.90
67752;DHT22;54551;51.068;5.826;2023-01-28T00:34:51;4.20;99.90
67752;DHT22;54551;51.068;5.826;2023-01-28T00:37:17;4.20;99.90
67752;DHT22;54551;51.068;5.826;2023-01-28T00:39:43;4.10;99.90
67752;DHT22;54551;51.068;5.826;2023-01-28T00:42:09;4.10;99.90
67752;DHT22;54551;51.068;5.826;2023-01-28T00:44:35;4.10;99.90
67752;DHT22;54551;51.068;5.826;2023-01-28T00:47:02;4.20;99.90
67752;DHT22;54551;51.068;5.826;2023-01-28T00:49:28;4.20;99.90
67752;DHT22;54551;51.068;5.826;2023-01-28T00:51:54;4.20;99.90
67752;DHT22;54551;51.068;5.826;2023-01-28T00:54:19;4.40;99.90
67752;DHT22;54551;51.068;5.826;2023-01-28T00:56:46;4.40;99.90
67752;DHT22;54551;51.068;5.826;2023-01-28T00:59:12;4.30;99.90
67752;DHT22;54551;51.068;5.826;2023-01-28T01:01:39;4.20;99.90
67752;DHT22;54551;51.068;5.826;2023-01-28T01:04:05;4.30;99.90
67752;DHT22;54551;51.068;5.826;2023-01-28T01:06:38;4.20;99.90
67752;DHT22;54551;51.068;5.826;2023-01-28T01:09:06;4.30;99.90
67752;DHT22;54551;51.068;5.826;2023-01-28T01:11:33;4.40;99.90
67752;DHT22;54551;51.068;5.826;2023-01-28T01:14:00;4.30;99.90
67752;DHT22;54551;51.068;5.826;2023-01-28T01:16:30;4.40;99.90
67752;DHT22;54551;51.068;5.826;2023-01-28T01:19:01;4.30;99.90
67752;DHT22;54551;51.068;5.826;2023-01-28T01:21:27;4.50;99.90
67752;DHT22;54551;51.068;5.826;2023-01-28T01:23:54;4.50;99.90
67752;DHT22;54551;51.068;5.826;2023-01-28T01:26:21;4.40;99.90
67752;DHT22;54551;51.068;5.826;2023-01-28T01:28:47;4.40;99.90
67752;DHT22;54551;51.068;5.826;2023-01-28T01:31:18;4.40;99.90
67752;DHT22;54551;51.068;5.826;2023-01-28T01:33:46;4.60;99.90
67752;DHT22;54551;51.068;5.826;2023-01-28T01:36:14;4.60;99.90
67752;DHT22;54551;51.068;5.826;2023-01-28T01:38:42;4.50;99.90
67752;DHT22;54551;51.068;5.826;2023-01-28T01:41:21;4.50;99.90
67752;DHT22;54551;51.068;5.826;2023-01-28T01:46:58;4.40;99.90
67752;DHT22;54551;51.068;5.826;2023-01-28T01:49:25;4.40;99.90
67752;DHT22;54551;51.068;5.826;2023-01-28T01:52:02;4.40;99.90
67752;DHT22;54551;51.068;5.826;2023-01-28T01:54:32;4.40;99.90
67752;DHT22;54551;51.068;5.826;2023-01-28T01:57:00;4.40;99.90
67752;DHT22;54551;51.068;5.826;2023-01-28T01:59:30;4.40;99.90
67752;DHT22;54551;51.068;5.826;2023-01-28T02:02:00;4.40;99.90
67752;DHT22;54551;51.068;5.826;2023-01-28T02:04:31;4.50;99.90
67752;DHT22;54551;51.068;5.826;2023-01-28T02:06:59;4.40;99.90
67752;DHT22;54551;51.068;5.826;2023-01-28T02:09:28;4.40;99.90
67752;DHT22;54551;51.068;5.826;2023-01-28T02:11:56;4.40;99.90
67752;DHT22;54551;51.068;5.826;2023-01-28T02:14:26;4.50;99.90
67752;DHT22;54551;51.068;5.826;2023-01-28T02:16:54;4.40;99.90
67752;DHT22;54551;51.068;5.826;2023-01-28T02:19:21;4.40;99.90
67752;DHT22;54551;51.068;5.826;2023-01-28T02:22:05;4.40;99.90
67752;DHT22;54551;51.068;5.826;2023-01-28T02:31:22;4.40;99.90
67752;DHT22;54551;51.068;5.826;2023-01-28T02:36:52;4.40;99.90
67752;DHT22;54551;51.068;5.826;2023-01-28T02:39:28;4.30;99.90
67752;DHT22;54551;51.068;5.826;2023-01-28T02:41:58;4.40;99.90
67752;DHT22;54551;51.068;5.826;2023-01-28T02:44:25;4.30;99.90
67752;DHT22;54551;51.068;5.826;2023-01-28T02:46:52;4.20;99.90
67752;DHT22;54551;51.068;5.826;2023-01-28T02:55:56;4.40;99.90
67752;DHT22;54551;51.068;5.826;2023-01-28T02:59:12;4.30;99.90
67752;DHT22;54551;51.068;5.826;2023-01-28T03:01:54;4.30;99.90
67752;DHT22;54551;51.068;5.826;2023-01-28T03:04:31;4.30;99.90
67752;DHT22;54551;51.068;5.826;2023-01-28T03:07:03;4.30;99.90
67752;DHT22;54551;51.068;5.826;2023-01-28T03:09:31;4.30;99.90
67752;DHT22;54551;51.068;5.826;2023-01-28T03:12:03;4.20;99.90
67752;DHT22;54551;51.068;5.826;2023-01-28T03:15:06;4.10;99.90
67752;DHT22;54551;51.068;5.826;2023-01-28T03:17:57;4.20;99.90
67752;DHT22;54551;51.068;5.826;2023-01-28T03:23:38;4.10;99.90
67752;DHT22;54551;51.068;5.826;2023-01-28T03:26:24;4.00;99.90
67752;DHT22;54551;51.068;5.826;2023-01-28T03:29:13;4.00;99.90
67752;DHT22;54551;51.068;5.826;2023-01-28T03:32:03;4.00;99.90
67752;DHT22;54551;51.068;5.826;2023-01-28T03:34:48;4.10;99.90
67752;DHT22;54551;51.068;5.826;2023-01-28T03:37:32;4.10;99.90
67752;DHT22;54551;51.068;5.826;2023-01-28T03:40:15;4.10;99.90
67752;DHT22;54551;51.068;5.826;2023-01-28T03:42:43;4.20;99.90
67752;DHT22;54551;51.068;5.826;2023-01-28T03:45:31;4.20;99.90
67752;DHT22;54551;51.068;5.826;2023-01-28T03:47:58;4.20;99.90
67752;DHT22;54551;51.068;5.826;2023-01-28T03:50:25;4.10;99.90
67752;DHT22;54551;51.068;5.826;2023-01-28T03:52:55;4.00;99.90
67752;DHT22;54551;51.068;5.826;2023-01-28T03:55:42;4.00;99.90
67752;DHT22;54551;51.068;5.826;2023-01-28T03:58:09;4.00;99.90
67752;DHT22;54551;51.068;5.826;2023-01-28T04:00:35;4.00;99.90
67752;DHT22;54551;51.068;5.826;2023-01-28T04:03:15;4.00;99.90
67752;DHT22;54551;51.068;5.826;2023-01-28T04:05:45;4.00;99.90
67752;DHT22;54551;51.068;5.826;2023-01-28T04:08:13;3.90;99.90
67752;DHT22;54551;51.068;5.826;2023-01-28T04:11:11;3.90;99.90
67752;DHT22;54551;51.068;5.826;2023-01-28T04:13:41;3.90;99.90
67752;DHT22;54551;51.068;5.826;2023-01-28T04:16:07;3.90;99.90
67752;DHT22;54551;51.068;5.826;2023-01-28T04:18:39;4.00;99.90
67752;DHT22;54551;51.068;5.826;2023-01-28T04:21:06;3.90;99.90
67752;DHT22;54551;51.068;5.826;2023-01-28T04:23:33;3.80;99.90
67752;DHT22;54551;51.068;5.826;2023-01-28T04:26:00;3.80;99.90
67752;DHT22;54551;51.068;5.826;2023-01-28T04:28:26;3.80;99.90
67752;DHT22;54551;51.068;5.826;2023-01-28T04:30:52;3.80;99.90
67752;DHT22;54551;51.068;5.826;2023-01-28T04:33:37;3.70;99.90
67752;DHT22;54551;51.068;5.826;2023-01-28T04:36:19;3.70;99.90
67752;DHT22;54551;51.068;5.826;2023-01-28T04:39:01;3.60;99.90
67752;DHT22;54551;51.068;5.826;2023-01-28T04:41:47;3.50;99.90
67752;DHT22;54551;51.068;5.826;2023-01-28T04:44:19;3.50;99.90
67752;DHT22;54551;51.068;5.826;2023-01-28T04:47:06;3.50;99.90
67752;DHT22;54551;51.068;5.826;2023-01-28T04:49:48;3.50;99.90
67752;DHT22;54551;51.068;5.826;2023-01-28T04:52:34;3.50;99.90
67752;DHT22;54551;51.068;5.826;2023-01-28T04:55:08;3.50;99.90
67752;DHT22;54551;51.068;5.826;2023-01-28T04:57:34;3.50;99.90
67752;DHT22;54551;51.068;5.826;2023-01-28T05:00:00;3.50;99.90
67752;DHT22;54551;51.068;5.826;2023-01-28T05:02:26;3.60;99.90
67752;DHT22;54551;51.068;5.826;2023-01-28T05:04:52;3.60;99.90
67752;DHT22;54551;51.068;5.826;2023-01-28T05:07:41;3.70;99.90
67752;DHT22;54551;51.068;5.826;2023-01-28T05:10:08;3.60;99.90
67752;DHT22;54551;51.068;5.826;2023-01-28T05:12:34;3.50;99.90
67752;DHT22;54551;51.068;5.826;2023-01-28T05:15:03;3.60;99.90
67752;DHT22;54551;51.068;5.826;2023-01-28T05:17:29;3.50;99.90
67752;DHT22;54551;51.068;5.826;2023-01-28T05:19:55;3.30;99.90
67752;DHT22;54551;51.068;5.826;2023-01-28T05:22:23;3.50;99.90
67752;DHT22;54551;51.068;5.826;2023-01-28T05:25:09;3.60;99.90
67752;DHT22;54551;51.068;5.826;2023-01-28T05:27:34;3.50;99.90
67752;DHT22;54551;51.068;5.826;2023-01-28T05:30:00;3.60;99.90
67752;DHT22;54551;51.068;5.826;2023-01-28T05:32:26;3.60;99.90
67752;DHT22;54551;51.068;5.826;2023-01-28T05:34:52;3.60;99.90
67752;DHT22;54551;51.068;5.826;2023-01-28T05:37:18;3.60;99.90
67752;DHT22;54551;51.068;5.826;2023-01-28T05:39:45;3.50;99.90
67752;DHT22;54551;51.068;5.826;2023-01-28T05:42:11;3.50;99.90
67752;DHT22;54551;51.068;5.826;2023-01-28T05:44:42;3.50;99.90
67752;DHT22;54551;51.068;5.826;2023-01-28T05:47:26;3.50;99.90
67752;DHT22;54551;51.068;5.826;2023-01-28T05:50:01;3.60;99.90
67752;DHT22;54551;51.068;5.826;2023-01-28T05:52:35;3.60;99.90
67752;DHT22;54551;51.068;5.826;2023-01-28T05:55:04;3.60;99.90
67752;DHT22;54551;51.068;5.826;2023-01-28T05:57:31;3.60;99.90
67752;DHT22;54551;51.068;5.826;2023-01-28T05:59:56;3.60;99.90
67752;DHT22;54551;51.068;5.826;2023-01-28T06:02:22;3.60;99.90
67752;DHT22;54551;51.068;5.826;2023-01-28T06:04:52;3.40;99.90
67752;DHT22;54551;51.068;5.826;2023-01-28T06:07:18;3.10;99.90
67752;DHT22;54551;51.068;5.826;2023-01-28T06:09:46;3.00;99.90
67752;DHT22;54551;51.068;5.826;2023-01-28T06:12:14;3.10;99.90
67752;DHT22;54551;51.068;5.826;2023-01-28T06:14:53;3.20;99.90
67752;DHT22;54551;51.068;5.826;2023-01-28T06:17:56;3.30;99.90
67752;DHT22;54551;51.068;5.826;2023-01-28T06:20:26;3.30;99.90
67752;DHT22;54551;51.068;5.826;2023-01-28T06:22:55;3.40;99.90
67752;DHT22;54551;51.068;5.826;2023-01-28T06:25:21;3.40;99.90
67752;DHT22;54551;51.068;5.826;2023-01-28T06:27:47;3.40;99.90
67752;DHT22;54551;51.068;5.826;2023-01-28T06:30:13;3.50;99.90
67752;DHT22;54551;51.068;5.826;2023-01-28T06:32:39;3.20;99.90
67752;DHT22;54551;51.068;5.826;2023-01-28T06:35:05;3.30;99.90
67752;DHT22;54551;51.068;5.826;2023-01-28T06:37:30;3.20;99.90
67752;DHT22;54551;51.068;5.826;2023-01-28T06:39:56;3.20;99.90
67752;DHT22;54551;51.068;5.826;2023-01-28T06:42:22;3.30;99.90
67752;DHT22;54551;51.068;5.826;2023-01-28T06:44:48;3.30;99.90
67752;DHT22;54551;51.068;5.826;2023-01-28T06:47:14;3.30;99.90
67752;DHT22;54551;51.068;5.826;2023-01-28T06:49:40;3.30;99.90
67752;DHT22;54551;51.068;5.826;2023-01-28T06:52:06;3.00;99.90
67752;DHT22;54551;51.068;5.826;2023-01-28T06:54:31;2.90;99.90
67752;DHT22;54551;51.068;5.826;2023-01-28T06:56:58;2.70;99.90
67752;DHT22;54551;51.068;5.826;2023-01-28T06:59:24;2.80;99.90
67752;DHT22;54551;51.068;5.826;2023-01-28T07:01:49;2.90;99.90
67752;DHT22;54551;51.068;5.826;2023-01-28T07:04:15;2.90;99.90
67752;DHT22;54551;51.068;5.826;2023-01-28T07:06:41;2.90;99.90
67752;DHT22;54551;51.068;5.826;2023-01-28T07:09:07;2.70;99.90
67752;DHT22;54551;51.068;5.826;2023-01-28T07:11:33;2.80;99.90
67752;DHT22;54551;51.068;5.826;2023-01-28T07:13:59;2.80;99.90
67752;DHT22;54551;51.068;5.826;2023-01-28T07:16:25;2.80;99.90
67752;DHT22;54551;51.068;5.826;2023-01-28T07:18:50;2.80;99.90
67752;DHT22;54551;51.068;5.826;2023-01-28T07:21:16;2.80;99.90
67752;DHT22;54551;51.068;5.826;2023-01-28T07:23:42;2.60;99.90
67752;DHT22;54551;51.068;5.826;2023-01-28T07:26:08;2.60;99.90
67752;DHT22;54551;51.068;5.826;2023-01-28T07:28:34;2.60;99.90
67752;DHT22;54551;51.068;5.826;2023-01-28T07:31:00;2.80;99.90
67752;DHT22;54551;51.068;5.826;2023-01-28T07:33:26;2.80;99.90
67752;DHT22;54551;51.068;5.826;2023-01-28T07:35:52;3.00;99.90
67752;DHT22;54551;51.068;5.826;2023-01-28T07:38:17;3.00;99.90
67752;DHT22;54551;51.068;5.826;2023-01-28T07:40:43;3.20;99.90
67752;DHT22;54551;51.068;5.826;2023-01-28T07:43:10;3.20;99.90
67752;DHT22;54551;51.068;5.826;2023-01-28T07:45:38;3.20;99.90
67752;DHT22;54551;51.068;5.826;2023-01-28T07:48:06;3.30;99.90
67752;DHT22;54551;51.068;5.826;2023-01-28T07:50:34;3.30;99.90
67752;DHT22;54551;51.068;5.826;2023-01-28T07:53:08;3.40;99.90
67752;DHT22;54551;51.068;5.826;2023-01-28T07:55:36;3.40;99.90
67752;DHT22;54551;51.068;5.826;2023-01-28T07:58:03;3.50;99.90
67752;DHT22;54551;51.068;5.826;2023-01-28T08:00:31;3.50;99.90
67752;DHT22;54551;51.068;5.826;2023-01-28T08:03:15;3.60;99.90
67752;DHT22;54551;51.068;5.826;2023-01-28T08:05:45;3.70;99.90
67752;DHT22;54551;51.068;5.826;2023-01-28T08:08:13;3.60;99.90
67752;DHT22;54551;51.068;5.826;2023-01-28T08:10:39;3.60;99.90
67752;DHT22;54551;51.068;5.826;2023-01-28T08:13:06;3.70;99.90
67752;DHT22;54551;51.068;5.826;2023-01-28T08:15:32;3.60;99.90
67752;DHT22;54551;51.068;5.826;2023-01-28T08:17:58;3.60;99.90
67752;DHT22;54551;51.068;5.826;2023-01-28T08:20:26;3.60;99.90
67752;DHT22;54551;51.068;5.826;2023-01-28T08:22:53;3.70;99.90
67752;DHT22;54551;51.068;5.826;2023-01-28T08:25:28;3.60;99.90
67752;DHT22;54551;51.068;5.826;2023-01-28T08:27:54;3.50;99.90
67752;DHT22;54551;51.068;5.826;2023-01-28T08:30:20;3.50;99.90
67752;DHT22;54551;51.068;5.826;2023-01-28T08:32:46;3.40;99.90
67752;DHT22;54551;51.068;5.826;2023-01-28T08:35:12;3.00;99.90
67752;DHT22;54551;51.068;5.826;2023-01-28T08:37:37;3.10;99.90
67752;DHT22;54551;51.068;5.826;2023-01-28T08:40:04;3.20;99.90
67752;DHT22;54551;51.068;5.826;2023-01-28T08:42:30;3.20;99.90
67752;DHT22;54551;51.068;5.826;2023-01-28T08:44:56;3.10;99.90
67752;DHT22;54551;51.068;5.826;2023-01-28T08:47:21;3.00;99.90
67752;DHT22;54551;51.068;5.826;2023-01-28T08:49:47;3.00;99.90
67752;DHT22;54551;51.068;5.826;2023-01-28T08:52:13;3.00;99.90
67752;DHT22;54551;51.068;5.826;2023-01-28T08:54:39;3.00;99.90
67752;DHT22;54551;51.068;5.826;2023-01-28T08:57:05;3.10;99.90
67752;DHT22;54551;51.068;5.826;2023-01-28T08:59:31;3.20;99.90
67752;DHT22;54551;51.068;5.826;2023-01-28T09:01:56;3.20;99.90
67752;DHT22;54551;51.068;5.826;2023-01-28T09:04:23;3.50;99.90
67752;DHT22;54551;51.068;5.826;2023-01-28T09:06:48;3.60;99.90
67752;DHT22;54551;51.068;5.826;2023-01-28T09:09:14;3.60;99.90
67752;DHT22;54551;51.068;5.826;2023-01-28T09:11:40;3.60;99.90
67752;DHT22;54551;51.068;5.826;2023-01-28T09:14:06;3.70;99.90
67752;DHT22;54551;51.068;5.826;2023-01-28T09:16:32;3.80;99.90
67752;DHT22;54551;51.068;5.826;2023-01-28T09:18:58;3.80;99.90
67752;DHT22;54551;51.068;5.826;2023-01-28T09:21:24;3.70;99.90
67752;DHT22;54551;51.068;5.826;2023-01-28T09:23:49;3.80;99.90
67752;DHT22;54551;51.068;5.826;2023-01-28T09:26:15;3.80;99.90
67752;DHT22;54551;51.068;5.826;2023-01-28T09:28:41;3.60;99.90
67752;DHT22;54551;51.068;5.826;2023-01-28T09:31:09;3.60;99.90
67752;DHT22;54551;51.068;5.826;2023-01-28T09:33:37;3.50;99.90
67752;DHT22;54551;51.068;5.826;2023-01-28T09:36:06;3.60;99.90
67752;DHT22;54551;51.068;5.826;2023-01-28T09:38:32;3.70;99.90
67752;DHT22;54551;51.068;5.826;2023-01-28T09:41:00;3.90;99.90
67752;DHT22;54551;51.068;5.826;2023-01-28T09:43:47;3.90;99.90
67752;DHT22;54551;51.068;5.826;2023-01-28T09:46:16;3.90;99.90
67752;DHT22;54551;51.068;5.826;2023-01-28T09:48:49;3.90;99.90
67752;DHT22;54551;51.068;5.826;2023-01-28T09:51:25;3.90;99.90
67752;DHT22;54551;51.068;5.826;2023-01-28T09:53:54;3.90;99.90
67752;DHT22;54551;51.068;5.826;2023-01-28T09:56:25;3.80;99.90
67752;DHT22;54551;51.068;5.826;2023-01-28T09:58:53;3.70;99.90
67752;DHT22;54551;51.068;5.826;2023-01-28T10:09:47;3.80;99.90
67752;DHT22;54551;51.068;5.826;2023-01-28T10:17:58;3.90;99.90
67752;DHT22;54551;51.068;5.826;2023-01-28T10:20:30;4.00;99.90
67752;DHT22;54551;51.068;5.826;2023-01-28T10:23:05;4.00;99.90
67752;DHT22;54551;51.068;5.826;2023-01-28T10:25:33;3.90;99.90
67752;DHT22;54551;51.068;5.826;2023-01-28T10:28:01;3.60;99.90
67752;DHT22;54551;51.068;5.826;2023-01-28T10:30:31;3.40;99.90
67752;DHT22;54551;51.068;5.826;2023-01-28T10:33:03;3.60;99.90
67752;DHT22;54551;51.068;5.826;2023-01-28T10:35:40;3.60;99.90
67752;DHT22;54551;51.068;5.826;2023-01-28T10:38:12;3.60;99.90
67752;DHT22;54551;51.068;5.826;2023-01-28T10:40:41;3.80;99.90
67752;DHT22;54551;51.068;5.826;2023-01-28T10:43:07;3.80;99.90
67752;DHT22;54551;51.068;5.826;2023-01-28T10:45:41;4.00;99.90
67752;DHT22;54551;51.068;5.826;2023-01-28T10:48:29;3.90;99.90
67752;DHT22;54551;51.068;5.826;2023-01-28T10:50:58;3.90;99.90
67752;DHT22;54551;51.068;5.826;2023-01-28T10:53:43;4.10;99.90
67752;DHT22;54551;51.068;5.826;2023-01-28T10:56:28;4.00;99.90
67752;DHT22;54551;51.068;5.826;2023-01-28T10:59:22;4.20;99.90
67752;DHT22;54551;51.068;5.826;2023-01-28T11:01:53;4.20;99.90
67752;DHT22;54551;51.068;5.826;2023-01-28T11:04:23;4.20;99.90
67752;DHT22;54551;51.068;5.826;2023-01-28T11:06:58;4.20;99.90
67752;DHT22;54551;51.068;5.826;2023-01-28T11:09:30;4.30;99.90
67752;DHT22;54551;51.068;5.826;2023-01-28T11:11:58;4.40;99.90
67752;DHT22;54551;51.068;5.826;2023-01-28T11:14:34;4.40;99.90
67752;DHT22;54551;51.068;5.826;2023-01-28T11:17:00;4.30;99.90
67752;DHT22;54551;51.068;5.826;2023-01-28T11:19:33;4.20;99.90
67752;DHT22;54551;51.068;5.826;2023-01-28T11:22:00;4.10;99.90
67752;DHT22;54551;51.068;5.826;2023-01-28T11:24:29;4.00;99.90
67752;DHT22;54551;51.068;5.826;2023-01-28T11:26:57;3.90;99.90
67752;DHT22;54551;51.068;5.826;2023-01-28T11:29:30;3.90;99.90
67752;DHT22;54551;51.068;5.826;2023-01-28T11:31:57;3.90;99.90
67752;DHT22;54551;51.068;5.826;2023-01-28T11:34:27;3.90;99.90
67752;DHT22;54551;51.068;5.826;2023-01-28T11:37:02;4.00;99.90
67752;DHT22;54551;51.068;5.826;2023-01-28T11:39:28;4.10;99.90
67752;DHT22;54551;51.068;5.826;2023-01-28T11:42:11;4.00;99.90
67752;DHT22;54551;51.068;5.826;2023-01-28T11:44:38;3.90;99.90
67752;DHT22;54551;51.068;5.826;2023-01-28T11:50:19;4.00;99.90
67752;DHT22;54551;51.068;5.826;2023-01-28T11:55:57;3.80;99.90
67752;DHT22;54551;51.068;5.826;2023-01-28T12:02:03;3.90;99.90
67752;DHT22;54551;51.068;5.826;2023-01-28T12:04:38;3.60;99.90
67752;DHT22;54551;51.068;5.826;2023-01-28T12:15:08;3.10;99.90
67752;DHT22;54551;51.068;5.826;2023-01-28T12:20:14;3.10;99.90
67752;DHT22;54551;51.068;5.826;2023-01-28T12:30:36;3.30;99.90
67752;DHT22;54551;51.068;5.826;2023-01-28T12:33:38;3.40;99.90
67752;DHT22;54551;51.068;5.826;2023-01-28T12:39:14;3.70;99.90
67752;DHT22;54551;51.068;5.826;2023-01-28T12:41:50;3.90;99.90
67752;DHT22;54551;51.068;5.826;2023-01-28T12:47:34;4.00;99.90
67752;DHT22;54551;51.068;5.826;2023-01-28T12:50:26;3.70;99.90
67752;DHT22;54551;51.068;5.826;2023-01-28T12:53:11;3.40;99.90
67752;DHT22;54551;51.068;5.826;2023-01-28T12:55:45;3.20;99.90
67752;DHT22;54551;51.068;5.826;2023-01-28T12:58:20;3.00;99.90
67752;DHT22;54551;51.068;5.826;2023-01-28T13:00:50;3.10;99.90
67752;DHT22;54551;51.068;5.826;2023-01-28T13:06:01;3.80;99.90
67752;DHT22;54551;51.068;5.826;2023-01-28T13:08:29;3.70;99.90
67752;DHT22;54551;51.068;5.826;2023-01-28T13:10:57;3.60;99.90
67752;DHT22;54551;51.068;5.826;2023-01-28T13:13:32;3.90;99.90
67752;DHT22;54551;51.068;5.826;2023-01-28T13:15:59;3.90;99.90
67752;DHT22;54551;51.068;5.826;2023-01-28T13:21:29;3.40;99.90
67752;DHT22;54551;51.068;5.826;2023-01-28T13:26:45;3.80;99.90
67752;DHT22;54551;51.068;5.826;2023-01-28T13:29:18;3.70;99.90
67752;DHT22;54551;51.068;5.826;2023-01-28T13:31:47;4.10;99.90
67752;DHT22;54551;51.068;5.826;2023-01-28T13:34:26;4.30;99.90
67752;DHT22;54551;51.068;5.826;2023-01-28T13:36:55;4.40;99.90
67752;DHT22;54551;51.068;5.826;2023-01-28T13:39:24;4.60;99.90
67752;DHT22;54551;51.068;5.826;2023-01-28T13:44:48;4.30;99.90
67752;DHT22;54551;51.068;5.826;2023-01-28T13:47:32;3.90;99.90
67752;DHT22;54551;51.068;5.826;2023-01-28T13:50:04;4.00;99.90
67752;DHT22;54551;51.068;5.826;2023-01-28T13:52:40;4.00;99.90
67752;DHT22;54551;51.068;5.826;2023-01-28T13:58:06;4.20;99.90
67752;DHT22;54551;51.068;5.826;2023-01-28T14:15:18;4.40;99.90
67752;DHT22;54551;51.068;5.826;2023-01-28T14:20:19;4.30;99.90
67752;DHT22;54551;51.068;5.826;2023-01-28T14:22:48;3.90;99.90
67752;DHT22;54551;51.068;5.826;2023-01-28T14:25:26;3.60;99.90
67752;DHT22;54551;51.068;5.826;2023-01-28T14:27:55;3.90;99.90
67752;DHT22;54551;51.068;5.826;2023-01-28T14:30:31;4.00;99.90
67752;DHT22;54551;51.068;5.826;2023-01-28T14:33:01;4.00;99.90
67752;DHT22;54551;51.068;5.826;2023-01-28T14:35:30;4.10;99.90
67752;DHT22;54551;51.068;5.826;2023-01-28T14:37:58;4.20;99.90
67752;DHT22;54551;51.068;5.826;2023-01-28T14:40:27;4.00;99.90
67752;DHT22;54551;51.068;5.826;2023-01-28T14:42:54;4.10;99.90
67752;DHT22;54551;51.068;5.826;2023-01-28T14:59:55;4.00;99.90
67752;DHT22;54551;51.068;5.826;2023-01-28T15:02:30;4.00;99.90
67752;DHT22;54551;51.068;5.826;2023-01-28T15:05:28;4.10;99.90
67752;DHT22;54551;51.068;5.826;2023-01-28T15:07:55;4.20;99.90
67752;DHT22;54551;51.068;5.826;2023-01-28T15:10:30;4.30;99.90
67752;DHT22;54551;51.068;5.826;2023-01-28T15:13:08;4.30;99.90
67752;DHT22;54551;51.068;5.826;2023-01-28T15:15:39;4.40;99.90
67752;DHT22;54551;51.068;5.826;2023-01-28T15:18:19;4.50;99.90
67752;DHT22;54551;51.068;5.826;2023-01-28T15:20:50;4.60;99.90
67752;DHT22;54551;51.068;5.826;2023-01-28T15:23:20;4.70;99.90
67752;DHT22;54551;51.068;5.826;2023-01-28T15:25:47;4.60;99.90
67752;DHT22;54551;51.068;5.826;2023-01-28T15:28:25;4.50;99.90
67752;DHT22;54551;51.068;5.826;2023-01-28T15:30:52;4.40;99.90
67752;DHT22;54551;51.068;5.826;2023-01-28T15:33:20;4.30;99.90
67752;DHT22;54551;51.068;5.826;2023-01-28T15:35:51;4.10;99.90
67752;DHT22;54551;51.068;5.826;2023-01-28T15:38:17;4.00;99.90
67752;DHT22;54551;51.068;5.826;2023-01-28T15:40:49;3.90;99.90
67752;DHT22;54551;51.068;5.826;2023-01-28T15:43:24;3.80;99.90
67752;DHT22;54551;51.068;5.826;2023-01-28T15:45:53;3.70;99.90
67752;DHT22;54551;51.068;5.826;2023-01-28T15:48:22;3.60;99.90
67752;DHT22;54551;51.068;5.826;2023-01-28T15:50:58;3.50;99.90
67752;DHT22;54551;51.068;5.826;2023-01-28T15:53:25;3.40;99.90
67752;DHT22;54551;51.068;5.826;2023-01-28T15:56:04;3.30;99.90
67752;DHT22;54551;51.068;5.826;2023-01-28T15:58:30;3.20;99.90
67752;DHT22;54551;51.068;5.826;2023-01-28T16:03:36;3.00;99.90
67752;DHT22;54551;51.068;5.826;2023-01-28T16:06:04;2.80;99.90
67752;DHT22;54551;51.068;5.826;2023-01-28T16:08:38;2.80;99.90
67752;DHT22;54551;51.068;5.826;2023-01-28T16:11:07;2.70;99.90
67752;DHT22;54551;51.068;5.826;2023-01-28T16:13:34;2.60;99.90
67752;DHT22;54551;51.068;5.826;2023-01-28T16:16:02;2.50;99.90
67752;DHT22;54551;51.068;5.826;2023-01-28T16:18:52;2.40;99.90
67752;DHT22;54551;51.068;5.826;2023-01-28T16:21:33;2.30;99.90
67752;DHT22;54551;51.068;5.826;2023-01-28T16:27:02;2.10;99.90
67752;DHT22;54551;51.068;5.826;2023-01-28T16:29:29;2.00;99.90
67752;DHT22;54551;51.068;5.826;2023-01-28T16:31:55;1.90;99.90
67752;DHT22;54551;51.068;5.826;2023-01-28T16:34:24;1.90;99.90
67752;DHT22;54551;51.068;5.826;2023-01-28T16:36:55;1.80;99.90
67752;DHT22;54551;51.068;5.826;2023-01-28T16:39:21;1.80;99.90
67752;DHT22;54551;51.068;5.826;2023-01-28T16:41:47;1.70;99.90
67752;DHT22;54551;51.068;5.826;2023-01-28T16:44:15;1.70;99.90
67752;DHT22;54551;51.068;5.826;2023-01-28T16:46:42;1.70;99.90
67752;DHT22;54551;51.068;5.826;2023-01-28T16:49:08;1.70;99.90
67752;DHT22;54551;51.068;5.826;2023-01-28T16:51:36;1.70;99.90
67752;DHT22;54551;51.068;5.826;2023-01-28T16:54:03;1.70;99.90
67752;DHT22;54551;51.068;5.826;2023-01-28T16:56:29;1.70;99.90
67752;DHT22;54551;51.068;5.826;2023-01-28T16:58:56;1.70;99.90
67752;DHT22;54551;51.068;5.826;2023-01-28T17:01:22;1.60;99.90
67752;DHT22;54551;51.068;5.826;2023-01-28T17:03:48;1.60;99.90
67752;DHT22;54551;51.068;5.826;2023-01-28T17:06:16;1.60;99.90
67752;DHT22;54551;51.068;5.826;2023-01-28T17:08:42;1.60;99.90
67752;DHT22;54551;51.068;5.826;2023-01-28T17:11:10;1.50;99.90
67752;DHT22;54551;51.068;5.826;2023-01-28T17:13:36;1.40;99.90
67752;DHT22;54551;51.068;5.826;2023-01-28T17:16:03;1.30;99.90
67752;DHT22;54551;51.068;5.826;2023-01-28T17:18:29;1.20;99.90
67752;DHT22;54551;51.068;5.826;2023-01-28T17:21:00;1.20;99.90
67752;DHT22;54551;51.068;5.826;2023-01-28T17:23:27;1.10;99.90
67752;DHT22;54551;51.068;5.826;2023-01-28T17:25:53;1.10;99.90
67752;DHT22;54551;51.068;5.826;2023-01-28T17:28:19;1.10;99.90
67752;DHT22;54551;51.068;5.826;2023-01-28T17:30:44;1.00;99.90
67752;DHT22;54551;51.068;5.826;2023-01-28T17:33:10;1.00;99.90
67752;DHT22;54551;51.068;5.826;2023-01-28T17:35:36;1.00;99.90
67752;DHT22;54551;51.068;5.826;2023-01-28T17:38:03;1.00;99.90
67752;DHT22;54551;51.068;5.826;2023-01-28T17:40:30;1.00;99.90
67752;DHT22;54551;51.068;5.826;2023-01-28T17:42:56;0.90;99.90
67752;DHT22;54551;51.068;5.826;2023-01-28T17:45:24;0.90;99.90
67752;DHT22;54551;51.068;5.826;2023-01-28T17:47:50;0.90;99.90
67752;DHT22;54551;51.068;5.826;2023-01-28T17:50:16;0.90;99.90
67752;DHT22;54551;51.068;5.826;2023-01-28T17:52:42;0.90;99.90
67752;DHT22;54551;51.068;5.826;2023-01-28T17:55:08;0.80;99.90
67752;DHT22;54551;51.068;5.826;2023-01-28T17:57:35;0.80;99.90
67752;DHT22;54551;51.068;5.826;2023-01-28T18:00:01;0.80;99.90
67752;DHT22;54551;51.068;5.826;2023-01-28T18:02:37;0.80;99.90
67752;DHT22;54551;51.068;5.826;2023-01-28T18:05:03;0.70;99.90
67752;DHT22;54551;51.068;5.826;2023-01-28T18:07:29;0.70;99.90